sensor_id;sensor_type;location;lat;lon;timestamp;temperature;humidity
16980;DHT22;42288;52.182;21.156;2022-12-10T00:01:42;4.20;99.40
16980;DHT22;42288;52.182;21.156;2022-12-10T00:04:08;4.20;99.40
16980;DHT22;42288;52.182;21.156;2022-12-10T00:06:35;4.20;98.90
16980;DHT22;42288;52.182;21.156;2022-12-10T00:09:03;4.20;99.30
16980;DHT22;42288;52.182;21.156;2022-12-10T00:11:29;4.20;99.50
16980;DHT22;42288;52.182;21.156;2022-12-10T00:13:55;4.10;99.10
16980;DHT22;42288;52.182;21.156;2022-12-10T00:16:23;4.00;98.90
16980;DHT22;42288;52.182;21.156;2022-12-10T00:18:49;4.00;99.80
16980;DHT22;42288;52.182;21.156;2022-12-10T00:21:17;4.10;99.40
16980;DHT22;42288;52.182;21.156;2022-12-10T00:23:43;4.00;99.00
16980;DHT22;42288;52.182;21.156;2022-12-10T00:26:22;4.20;99.20
16980;DHT22;42288;52.182;21.156;2022-12-10T00:28:48;4.10;98.90
16980;DHT22;42288;52.182;21.156;2022-12-10T00:31:20;3.90;99.00
16980;DHT22;42288;52.182;21.156;2022-12-10T00:33:47;4.00;99.70
16980;DHT22;42288;52.182;21.156;2022-12-10T00:36:15;4.20;99.50
16980;DHT22;42288;52.182;21.156;2022-12-10T00:38:42;4.30;99.50
16980;DHT22;42288;52.182;21.156;2022-12-10T00:41:08;4.10;99.20
16980;DHT22;42288;52.182;21.156;2022-12-10T00:43:34;4.10;99.40
16980;DHT22;42288;52.182;21.156;2022-12-10T00:46:00;4.00;99.40
16980;DHT22;42288;52.182;21.156;2022-12-10T00:48:25;4.20;99.70
16980;DHT22;42288;52.182;21.156;2022-12-10T00:51:02;4.20;99.50
16980;DHT22;42288;52.182;21.156;2022-12-10T00:53:29;4.00;99.30
16980;DHT22;42288;52.182;21.156;2022-12-10T00:55:56;4.10;99.60
16980;DHT22;42288;52.182;21.156;2022-12-10T00:58:22;4.10;99.60
16980;DHT22;42288;52.182;21.156;2022-12-10T01:00:48;4.20;99.70
16980;DHT22;42288;52.182;21.156;2022-12-10T01:03:14;4.30;99.40
16980;DHT22;42288;52.182;21.156;2022-12-10T01:05:39;4.30;99.30
16980;DHT22;42288;52.182;21.156;2022-12-10T01:08:05;4.20;99.30
16980;DHT22;42288;52.182;21.156;2022-12-10T01:10:31;4.20;99.30
16980;DHT22;42288;52.182;21.156;2022-12-10T01:12:56;4.30;99.50
16980;DHT22;42288;52.182;21.156;2022-12-10T01:15:22;4.30;99.30
16980;DHT22;42288;52.182;21.156;2022-12-10T01:17:47;3.90;99.00
16980;DHT22;42288;52.182;21.156;2022-12-10T01:20:13;3.80;99.90
16980;DHT22;42288;52.182;21.156;2022-12-10T01:22:39;3.70;99.90
16980;DHT22;42288;52.182;21.156;2022-12-10T01:25:04;4.00;99.90
16980;DHT22;42288;52.182;21.156;2022-12-10T01:27:30;4.00;99.80
16980;DHT22;42288;52.182;21.156;2022-12-10T01:29:55;4.10;99.70
16980;DHT22;42288;52.182;21.156;2022-12-10T01:32:21;4.00;99.70
16980;DHT22;42288;52.182;21.156;2022-12-10T01:34:47;4.00;99.90
16980;DHT22;42288;52.182;21.156;2022-12-10T01:37:12;4.20;99.90
16980;DHT22;42288;52.182;21.156;2022-12-10T01:39:38;3.90;99.80
16980;DHT22;42288;52.182;21.156;2022-12-10T01:42:04;4.10;99.90
16980;DHT22;42288;52.182;21.156;2022-12-10T01:46:58;3.90;99.90
16980;DHT22;42288;52.182;21.156;2022-12-10T01:49:34;3.90;99.70
16980;DHT22;42288;52.182;21.156;2022-12-10T01:52:00;4.10;99.90
16980;DHT22;42288;52.182;21.156;2022-12-10T01:54:31;4.00;99.60
16980;DHT22;42288;52.182;21.156;2022-12-10T01:57:04;4.00;99.50
16980;DHT22;42288;52.182;21.156;2022-12-10T01:59:30;3.90;99.80
16980;DHT22;42288;52.182;21.156;2022-12-10T02:05:19;3.80;99.70
16980;DHT22;42288;52.182;21.156;2022-12-10T02:07:44;3.80;99.90
16980;DHT22;42288;52.182;21.156;2022-12-10T02:13:14;4.00;99.90
16980;DHT22;42288;52.182;21.156;2022-12-10T02:15:49;3.90;99.60
16980;DHT22;42288;52.182;21.156;2022-12-10T02:18:24;3.80;99.80
16980;DHT22;42288;52.182;21.156;2022-12-10T02:20:56;4.00;99.90
16980;DHT22;42288;52.182;21.156;2022-12-10T02:23:24;3.80;99.40
16980;DHT22;42288;52.182;21.156;2022-12-10T02:25:56;3.60;99.80
16980;DHT22;42288;52.182;21.156;2022-12-10T02:28:35;3.80;99.90
16980;DHT22;42288;52.182;21.156;2022-12-10T02:31:02;3.80;99.70
16980;DHT22;42288;52.182;21.156;2022-12-10T02:33:30;4.00;99.90
16980;DHT22;42288;52.182;21.156;2022-12-10T02:35:57;3.80;99.30
16980;DHT22;42288;52.182;21.156;2022-12-10T02:38:29;4.00;99.80
16980;DHT22;42288;52.182;21.156;2022-12-10T02:41:06;4.00;99.80
16980;DHT22;42288;52.182;21.156;2022-12-10T02:43:33;4.00;99.60
16980;DHT22;42288;52.182;21.156;2022-12-10T02:46:01;3.90;99.30
16980;DHT22;42288;52.182;21.156;2022-12-10T02:48:28;4.00;99.90
16980;DHT22;42288;52.182;21.156;2022-12-10T02:50:53;4.10;99.90
16980;DHT22;42288;52.182;21.156;2022-12-10T02:53:19;4.00;99.90
16980;DHT22;42288;52.182;21.156;2022-12-10T03:03:50;4.00;99.40
16980;DHT22;42288;52.182;21.156;2022-12-10T03:06:20;3.90;99.90
16980;DHT22;42288;52.182;21.156;2022-12-10T03:09:05;3.70;99.50
16980;DHT22;42288;52.182;21.156;2022-12-10T03:11:31;3.90;99.90
16980;DHT22;42288;52.182;21.156;2022-12-10T03:14:02;3.90;99.60
16980;DHT22;42288;52.182;21.156;2022-12-10T03:16:33;3.80;99.40
16980;DHT22;42288;52.182;21.156;2022-12-10T03:19:02;3.70;99.90
16980;DHT22;42288;52.182;21.156;2022-12-10T03:21:30;3.90;99.90
16980;DHT22;42288;52.182;21.156;2022-12-10T03:23:56;3.90;99.90
16980;DHT22;42288;52.182;21.156;2022-12-10T03:26:23;4.00;99.90
16980;DHT22;42288;52.182;21.156;2022-12-10T03:28:52;3.90;99.90
16980;DHT22;42288;52.182;21.156;2022-12-10T03:31:20;4.00;99.90
16980;DHT22;42288;52.182;21.156;2022-12-10T03:33:47;4.00;99.90
16980;DHT22;42288;52.182;21.156;2022-12-10T03:36:14;4.20;99.90
16980;DHT22;42288;52.182;21.156;2022-12-10T03:38:42;4.00;99.80
16980;DHT22;42288;52.182;21.156;2022-12-10T03:41:08;4.10;99.90
16980;DHT22;42288;52.182;21.156;2022-12-10T03:43:34;4.20;99.70
16980;DHT22;42288;52.182;21.156;2022-12-10T03:45:59;4.20;99.50
16980;DHT22;42288;52.182;21.156;2022-12-10T03:48:25;4.00;99.20
16980;DHT22;42288;52.182;21.156;2022-12-10T03:50:50;4.00;99.50
16980;DHT22;42288;52.182;21.156;2022-12-10T03:53:16;3.80;99.70
16980;DHT22;42288;52.182;21.156;2022-12-10T03:55:41;3.70;99.80
16980;DHT22;42288;52.182;21.156;2022-12-10T03:58:07;3.70;99.90
16980;DHT22;42288;52.182;21.156;2022-12-10T04:00:32;3.80;99.90
16980;DHT22;42288;52.182;21.156;2022-12-10T04:02:58;3.60;99.90
16980;DHT22;42288;52.182;21.156;2022-12-10T04:05:23;3.80;99.90
16980;DHT22;42288;52.182;21.156;2022-12-10T04:07:49;3.80;99.90
16980;DHT22;42288;52.182;21.156;2022-12-10T04:10:14;3.80;99.90
16980;DHT22;42288;52.182;21.156;2022-12-10T04:12:40;3.90;99.90
16980;DHT22;42288;52.182;21.156;2022-12-10T04:15:06;4.00;99.90
16980;DHT22;42288;52.182;21.156;2022-12-10T04:17:50;3.90;99.90
16980;DHT22;42288;52.182;21.156;2022-12-10T04:20:16;3.90;99.90
16980;DHT22;42288;52.182;21.156;2022-12-10T04:23:02;4.00;99.80
16980;DHT22;42288;52.182;21.156;2022-12-10T04:25:46;3.70;99.80
16980;DHT22;42288;52.182;21.156;2022-12-10T04:28:30;3.60;99.90
16980;DHT22;42288;52.182;21.156;2022-12-10T04:30:56;3.70;99.90
16980;DHT22;42288;52.182;21.156;2022-12-10T04:33:21;3.70;99.70
16980;DHT22;42288;52.182;21.156;2022-12-10T04:35:47;3.80;99.90
16980;DHT22;42288;52.182;21.156;2022-12-10T04:38:12;3.80;99.80
16980;DHT22;42288;52.182;21.156;2022-12-10T04:40:38;4.00;99.80
16980;DHT22;42288;52.182;21.156;2022-12-10T04:43:04;3.60;99.60
16980;DHT22;42288;52.182;21.156;2022-12-10T04:45:29;3.50;99.70
16980;DHT22;42288;52.182;21.156;2022-12-10T04:47:54;3.50;99.90
16980;DHT22;42288;52.182;21.156;2022-12-10T04:50:20;3.70;99.90
16980;DHT22;42288;52.182;21.156;2022-12-10T04:52:45;3.70;99.90
16980;DHT22;42288;52.182;21.156;2022-12-10T04:55:11;3.80;99.90
16980;DHT22;42288;52.182;21.156;2022-12-10T04:57:36;3.90;99.90
16980;DHT22;42288;52.182;21.156;2022-12-10T05:00:03;4.10;99.80
16980;DHT22;42288;52.182;21.156;2022-12-10T05:02:28;3.80;99.70
16980;DHT22;42288;52.182;21.156;2022-12-10T05:04:54;3.80;99.60
16980;DHT22;42288;52.182;21.156;2022-12-10T05:07:19;3.80;99.90
16980;DHT22;42288;52.182;21.156;2022-12-10T05:09:45;3.90;99.90
16980;DHT22;42288;52.182;21.156;2022-12-10T05:12:10;3.90;99.90
16980;DHT22;42288;52.182;21.156;2022-12-10T05:14:36;4.00;99.90
16980;DHT22;42288;52.182;21.156;2022-12-10T05:17:01;4.10;99.60
16980;DHT22;42288;52.182;21.156;2022-12-10T05:19:27;4.20;99.40
16980;DHT22;42288;52.182;21.156;2022-12-10T05:21:53;4.10;99.30
16980;DHT22;42288;52.182;21.156;2022-12-10T05:24:37;4.20;99.30
16980;DHT22;42288;52.182;21.156;2022-12-10T05:27:03;4.00;99.20
16980;DHT22;42288;52.182;21.156;2022-12-10T05:29:29;4.00;99.60
16980;DHT22;42288;52.182;21.156;2022-12-10T05:31:55;3.80;99.20
16980;DHT22;42288;52.182;21.156;2022-12-10T05:34:21;3.90;99.80
16980;DHT22;42288;52.182;21.156;2022-12-10T05:36:46;3.90;99.60
16980;DHT22;42288;52.182;21.156;2022-12-10T05:39:12;3.80;99.60
16980;DHT22;42288;52.182;21.156;2022-12-10T05:41:39;3.90;99.90
16980;DHT22;42288;52.182;21.156;2022-12-10T05:44:05;3.90;99.80
16980;DHT22;42288;52.182;21.156;2022-12-10T05:46:32;3.80;99.70
16980;DHT22;42288;52.182;21.156;2022-12-10T05:49:00;3.70;99.80
16980;DHT22;42288;52.182;21.156;2022-12-10T05:51:31;3.60;99.90
16980;DHT22;42288;52.182;21.156;2022-12-10T05:53:58;3.70;99.90
16980;DHT22;42288;52.182;21.156;2022-12-10T05:56:25;3.90;99.90
16980;DHT22;42288;52.182;21.156;2022-12-10T05:58:53;3.80;99.50
16980;DHT22;42288;52.182;21.156;2022-12-10T06:01:22;4.00;99.90
16980;DHT22;42288;52.182;21.156;2022-12-10T06:03:49;3.80;99.60
16980;DHT22;42288;52.182;21.156;2022-12-10T06:06:27;3.80;99.90
16980;DHT22;42288;52.182;21.156;2022-12-10T06:08:53;3.70;99.90
16980;DHT22;42288;52.182;21.156;2022-12-10T06:11:19;3.60;99.80
16980;DHT22;42288;52.182;21.156;2022-12-10T06:13:45;3.80;99.90
16980;DHT22;42288;52.182;21.156;2022-12-10T06:16:12;4.00;99.90
16980;DHT22;42288;52.182;21.156;2022-12-10T06:18:39;4.00;99.90
16980;DHT22;42288;52.182;21.156;2022-12-10T06:21:09;3.80;99.10
16980;DHT22;42288;52.182;21.156;2022-12-10T06:23:36;4.00;99.50
16980;DHT22;42288;52.182;21.156;2022-12-10T06:26:10;4.00;99.90
16980;DHT22;42288;52.182;21.156;2022-12-10T06:28:37;4.00;99.70
16980;DHT22;42288;52.182;21.156;2022-12-10T06:31:03;3.90;99.60
16980;DHT22;42288;52.182;21.156;2022-12-10T06:33:28;3.90;99.40
16980;DHT22;42288;52.182;21.156;2022-12-10T06:35:54;4.00;99.60
16980;DHT22;42288;52.182;21.156;2022-12-10T06:38:19;4.10;99.80
16980;DHT22;42288;52.182;21.156;2022-12-10T06:40:45;4.10;99.20
16980;DHT22;42288;52.182;21.156;2022-12-10T06:43:11;4.00;99.80
16980;DHT22;42288;52.182;21.156;2022-12-10T06:45:39;4.10;99.60
16980;DHT22;42288;52.182;21.156;2022-12-10T06:48:05;4.00;99.30
16980;DHT22;42288;52.182;21.156;2022-12-10T06:50:30;4.00;99.50
16980;DHT22;42288;52.182;21.156;2022-12-10T06:52:56;4.20;99.90
16980;DHT22;42288;52.182;21.156;2022-12-10T06:55:21;4.00;99.40
16980;DHT22;42288;52.182;21.156;2022-12-10T06:57:51;4.00;99.60
16980;DHT22;42288;52.182;21.156;2022-12-10T07:00:16;4.10;99.90
16980;DHT22;42288;52.182;21.156;2022-12-10T07:02:42;4.00;99.70
16980;DHT22;42288;52.182;21.156;2022-12-10T07:05:08;4.00;99.60
16980;DHT22;42288;52.182;21.156;2022-12-10T07:07:35;4.10;99.90
16980;DHT22;42288;52.182;21.156;2022-12-10T07:10:01;4.00;99.70
16980;DHT22;42288;52.182;21.156;2022-12-10T07:12:27;3.90;99.80
16980;DHT22;42288;52.182;21.156;2022-12-10T07:14:52;4.00;99.90
16980;DHT22;42288;52.182;21.156;2022-12-10T07:17:18;4.10;99.90
16980;DHT22;42288;52.182;21.156;2022-12-10T07:19:43;4.10;99.80
16980;DHT22;42288;52.182;21.156;2022-12-10T07:22:09;3.90;99.70
16980;DHT22;42288;52.182;21.156;2022-12-10T07:24:35;4.00;99.90
16980;DHT22;42288;52.182;21.156;2022-12-10T07:27:03;4.10;99.90
16980;DHT22;42288;52.182;21.156;2022-12-10T07:29:29;4.10;99.80
16980;DHT22;42288;52.182;21.156;2022-12-10T07:31:54;4.20;99.90
16980;DHT22;42288;52.182;21.156;2022-12-10T07:34:20;4.30;99.80
16980;DHT22;42288;52.182;21.156;2022-12-10T07:36:46;4.30;99.60
16980;DHT22;42288;52.182;21.156;2022-12-10T07:39:12;4.20;99.50
16980;DHT22;42288;52.182;21.156;2022-12-10T07:41:43;4.10;99.50
16980;DHT22;42288;52.182;21.156;2022-12-10T07:44:11;4.20;99.90
16980;DHT22;42288;52.182;21.156;2022-12-10T07:46:38;4.10;99.90
16980;DHT22;42288;52.182;21.156;2022-12-10T07:49:03;4.20;99.90
16980;DHT22;42288;52.182;21.156;2022-12-10T07:51:29;4.30;99.40
16980;DHT22;42288;52.182;21.156;2022-12-10T07:53:55;4.20;99.30
16980;DHT22;42288;52.182;21.156;2022-12-10T07:56:22;4.20;99.90
16980;DHT22;42288;52.182;21.156;2022-12-10T07:58:48;4.20;99.90
16980;DHT22;42288;52.182;21.156;2022-12-10T08:01:18;4.40;99.70
16980;DHT22;42288;52.182;21.156;2022-12-10T08:03:44;4.10;99.40
16980;DHT22;42288;52.182;21.156;2022-12-10T08:06:13;4.10;99.80
16980;DHT22;42288;52.182;21.156;2022-12-10T08:08:39;4.30;99.90
16980;DHT22;42288;52.182;21.156;2022-12-10T08:11:05;4.20;99.30
16980;DHT22;42288;52.182;21.156;2022-12-10T08:13:32;4.20;99.90
16980;DHT22;42288;52.182;21.156;2022-12-10T08:16:13;4.30;99.70
16980;DHT22;42288;52.182;21.156;2022-12-10T08:18:40;4.20;99.90
16980;DHT22;42288;52.182;21.156;2022-12-10T08:21:11;4.30;99.90
16980;DHT22;42288;52.182;21.156;2022-12-10T08:23:37;4.50;99.90
16980;DHT22;42288;52.182;21.156;2022-12-10T08:26:29;4.40;99.80
16980;DHT22;42288;52.182;21.156;2022-12-10T08:28:54;4.30;99.90
16980;DHT22;42288;52.182;21.156;2022-12-10T08:31:20;4.50;99.90
16980;DHT22;42288;52.182;21.156;2022-12-10T08:33:47;4.50;99.70
16980;DHT22;42288;52.182;21.156;2022-12-10T08:36:14;4.50;99.70
16980;DHT22;42288;52.182;21.156;2022-12-10T08:38:41;4.20;99.30
16980;DHT22;42288;52.182;21.156;2022-12-10T08:43:37;4.10;99.90
16980;DHT22;42288;52.182;21.156;2022-12-10T08:46:02;4.30;99.90
16980;DHT22;42288;52.182;21.156;2022-12-10T08:48:28;4.30;99.90
16980;DHT22;42288;52.182;21.156;2022-12-10T08:50:54;4.10;99.90
16980;DHT22;42288;52.182;21.156;2022-12-10T08:53:19;4.10;99.90
16980;DHT22;42288;52.182;21.156;2022-12-10T08:55:45;4.10;99.90
16980;DHT22;42288;52.182;21.156;2022-12-10T08:58:10;4.30;99.90
16980;DHT22;42288;52.182;21.156;2022-12-10T09:00:37;4.50;99.90
16980;DHT22;42288;52.182;21.156;2022-12-10T09:03:03;4.50;99.90
16980;DHT22;42288;52.182;21.156;2022-12-10T09:05:28;4.70;99.90
16980;DHT22;42288;52.182;21.156;2022-12-10T09:07:54;4.50;99.40
16980;DHT22;42288;52.182;21.156;2022-12-10T09:10:20;4.50;99.60
16980;DHT22;42288;52.182;21.156;2022-12-10T09:12:47;4.40;99.90
16980;DHT22;42288;52.182;21.156;2022-12-10T09:15:13;4.50;99.90
16980;DHT22;42288;52.182;21.156;2022-12-10T09:17:38;4.50;99.90
16980;DHT22;42288;52.182;21.156;2022-12-10T09:20:04;4.40;99.50
16980;DHT22;42288;52.182;21.156;2022-12-10T09:22:30;4.60;99.30
16980;DHT22;42288;52.182;21.156;2022-12-10T09:24:56;4.50;99.80
16980;DHT22;42288;52.182;21.156;2022-12-10T09:27:21;4.60;99.90
16980;DHT22;42288;52.182;21.156;2022-12-10T09:29:47;4.50;99.60
16980;DHT22;42288;52.182;21.156;2022-12-10T09:32:12;4.60;99.90
16980;DHT22;42288;52.182;21.156;2022-12-10T09:34:38;4.70;99.80
16980;DHT22;42288;52.182;21.156;2022-12-10T09:37:03;4.80;99.40
16980;DHT22;42288;52.182;21.156;2022-12-10T09:39:29;4.70;99.30
16980;DHT22;42288;52.182;21.156;2022-12-10T09:42:17;4.60;99.40
16980;DHT22;42288;52.182;21.156;2022-12-10T09:45:09;4.30;99.20
16980;DHT22;42288;52.182;21.156;2022-12-10T09:50:29;4.50;99.40
16980;DHT22;42288;52.182;21.156;2022-12-10T09:52:57;4.50;99.10
16980;DHT22;42288;52.182;21.156;2022-12-10T09:55:34;4.50;99.40
16980;DHT22;42288;52.182;21.156;2022-12-10T09:58:04;4.70;99.80
16980;DHT22;42288;52.182;21.156;2022-12-10T10:00:37;4.80;99.30
16980;DHT22;42288;52.182;21.156;2022-12-10T10:03:03;5.00;99.00
16980;DHT22;42288;52.182;21.156;2022-12-10T10:05:48;4.90;98.60
16980;DHT22;42288;52.182;21.156;2022-12-10T10:11:01;4.80;99.00
16980;DHT22;42288;52.182;21.156;2022-12-10T10:13:35;4.90;98.80
16980;DHT22;42288;52.182;21.156;2022-12-10T10:16:24;5.10;98.40
16980;DHT22;42288;52.182;21.156;2022-12-10T10:19:01;5.10;98.50
16980;DHT22;42288;52.182;21.156;2022-12-10T10:21:40;5.10;98.30
16980;DHT22;42288;52.182;21.156;2022-12-10T10:24:09;4.90;98.30
16980;DHT22;42288;52.182;21.156;2022-12-10T10:26:38;4.80;98.40
16980;DHT22;42288;52.182;21.156;2022-12-10T10:29:12;4.80;98.90
16980;DHT22;42288;52.182;21.156;2022-12-10T10:31:40;4.50;98.50
16980;DHT22;42288;52.182;21.156;2022-12-10T10:34:18;4.70;99.30
16980;DHT22;42288;52.182;21.156;2022-12-10T10:36:45;4.70;98.60
16980;DHT22;42288;52.182;21.156;2022-12-10T10:41:44;5.10;98.90
16980;DHT22;42288;52.182;21.156;2022-12-10T10:44:22;5.00;98.20
16980;DHT22;42288;52.182;21.156;2022-12-10T10:46:51;5.10;98.10
16980;DHT22;42288;52.182;21.156;2022-12-10T10:49:22;4.90;97.90
16980;DHT22;42288;52.182;21.156;2022-12-10T10:51:49;4.90;98.40
16980;DHT22;42288;52.182;21.156;2022-12-10T10:54:37;5.00;98.50
16980;DHT22;42288;52.182;21.156;2022-12-10T10:57:26;5.00;98.90
16980;DHT22;42288;52.182;21.156;2022-12-10T11:00:01;5.40;98.50
16980;DHT22;42288;52.182;21.156;2022-12-10T11:02:32;5.20;98.00
16980;DHT22;42288;52.182;21.156;2022-12-10T11:05:21;5.50;98.00
16980;DHT22;42288;52.182;21.156;2022-12-10T11:07:57;5.30;97.90
16980;DHT22;42288;52.182;21.156;2022-12-10T11:10:24;5.00;97.30
16980;DHT22;42288;52.182;21.156;2022-12-10T11:13:05;5.10;98.20
16980;DHT22;42288;52.182;21.156;2022-12-10T11:15:33;5.30;98.10
16980;DHT22;42288;52.182;21.156;2022-12-10T11:17:59;5.10;97.80
16980;DHT22;42288;52.182;21.156;2022-12-10T11:20:28;5.30;98.00
16980;DHT22;42288;52.182;21.156;2022-12-10T11:22:57;5.30;97.50
16980;DHT22;42288;52.182;21.156;2022-12-10T11:36:06;5.20;97.50
16980;DHT22;42288;52.182;21.156;2022-12-10T11:41:38;5.40;98.00
16980;DHT22;42288;52.182;21.156;2022-12-10T11:47:27;5.00;97.30
16980;DHT22;42288;52.182;21.156;2022-12-10T11:50:18;4.90;97.80
16980;DHT22;42288;52.182;21.156;2022-12-10T11:59:14;5.40;97.70
16980;DHT22;42288;52.182;21.156;2022-12-10T12:02:46;5.50;97.50
16980;DHT22;42288;52.182;21.156;2022-12-10T12:08:14;5.10;97.60
16980;DHT22;42288;52.182;21.156;2022-12-10T12:13:30;5.10;97.70
16980;DHT22;42288;52.182;21.156;2022-12-10T12:16:04;4.50;97.40
16980;DHT22;42288;52.182;21.156;2022-12-10T12:18:57;4.50;98.40
16980;DHT22;42288;52.182;21.156;2022-12-10T12:21:24;4.50;98.50
16980;DHT22;42288;52.182;21.156;2022-12-10T12:24:00;4.80;98.90
16980;DHT22;42288;52.182;21.156;2022-12-10T12:26:42;5.10;98.30
16980;DHT22;42288;52.182;21.156;2022-12-10T12:29:29;5.10;97.60
16980;DHT22;42288;52.182;21.156;2022-12-10T12:32:17;5.20;98.00
16980;DHT22;42288;52.182;21.156;2022-12-10T12:35:01;5.00;97.90
16980;DHT22;42288;52.182;21.156;2022-12-10T12:37:40;5.00;98.30
16980;DHT22;42288;52.182;21.156;2022-12-10T12:40:27;5.00;97.60
16980;DHT22;42288;52.182;21.156;2022-12-10T12:42:58;5.10;97.80
16980;DHT22;42288;52.182;21.156;2022-12-10T12:45:52;5.10;97.80
16980;DHT22;42288;52.182;21.156;2022-12-10T12:48:33;5.10;98.10
16980;DHT22;42288;52.182;21.156;2022-12-10T12:51:05;4.90;97.60
16980;DHT22;42288;52.182;21.156;2022-12-10T12:53:31;4.80;98.00
16980;DHT22;42288;52.182;21.156;2022-12-10T12:56:23;5.00;98.20
16980;DHT22;42288;52.182;21.156;2022-12-10T13:02:14;4.80;97.80
16980;DHT22;42288;52.182;21.156;2022-12-10T13:04:41;4.90;98.10
16980;DHT22;42288;52.182;21.156;2022-12-10T13:09:49;4.80;98.00
16980;DHT22;42288;52.182;21.156;2022-12-10T13:25:39;4.70;98.20
16980;DHT22;42288;52.182;21.156;2022-12-10T13:28:22;4.50;98.10
16980;DHT22;42288;52.182;21.156;2022-12-10T13:41:33;4.60;98.10
16980;DHT22;42288;52.182;21.156;2022-12-10T13:44:34;4.60;98.20
16980;DHT22;42288;52.182;21.156;2022-12-10T13:47:31;4.60;98.20
16980;DHT22;42288;52.182;21.156;2022-12-10T13:50:02;4.70;98.40
16980;DHT22;42288;52.182;21.156;2022-12-10T14:06:23;4.60;98.40
16980;DHT22;42288;52.182;21.156;2022-12-10T14:11:32;4.60;98.70
16980;DHT22;42288;52.182;21.156;2022-12-10T14:14:00;4.60;98.90
16980;DHT22;42288;52.182;21.156;2022-12-10T14:16:29;4.70;98.10
16980;DHT22;42288;52.182;21.156;2022-12-10T14:18:58;4.70;98.30
16980;DHT22;42288;52.182;21.156;2022-12-10T14:21:25;4.90;98.10
16980;DHT22;42288;52.182;21.156;2022-12-10T14:23:52;4.60;98.00
16980;DHT22;42288;52.182;21.156;2022-12-10T14:26:26;4.80;98.20
16980;DHT22;42288;52.182;21.156;2022-12-10T14:29:01;4.70;98.30
16980;DHT22;42288;52.182;21.156;2022-12-10T14:31:33;5.00;98.10
16980;DHT22;42288;52.182;21.156;2022-12-10T14:34:03;4.70;97.60
16980;DHT22;42288;52.182;21.156;2022-12-10T14:36:32;4.60;97.80
16980;DHT22;42288;52.182;21.156;2022-12-10T14:38:59;4.60;98.10
16980;DHT22;42288;52.182;21.156;2022-12-10T14:41:28;4.50;98.30
16980;DHT22;42288;52.182;21.156;2022-12-10T14:43:55;4.60;98.20
16980;DHT22;42288;52.182;21.156;2022-12-10T14:46:25;4.60;97.80
16980;DHT22;42288;52.182;21.156;2022-12-10T14:48:54;4.30;97.80
16980;DHT22;42288;52.182;21.156;2022-12-10T14:51:22;4.30;98.10
16980;DHT22;42288;52.182;21.156;2022-12-10T14:53:49;4.20;98.20
16980;DHT22;42288;52.182;21.156;2022-12-10T14:56:54;4.30;98.70
16980;DHT22;42288;52.182;21.156;2022-12-10T14:59:16;4.20;98.20
16980;DHT22;42288;52.182;21.156;2022-12-10T15:01:49;4.30;98.60
16980;DHT22;42288;52.182;21.156;2022-12-10T15:04:19;4.20;98.70
16980;DHT22;42288;52.182;21.156;2022-12-10T15:06:45;4.10;98.60
16980;DHT22;42288;52.182;21.156;2022-12-10T15:09:16;4.20;99.10
16980;DHT22;42288;52.182;21.156;2022-12-10T15:11:42;4.40;98.40
16980;DHT22;42288;52.182;21.156;2022-12-10T15:14:16;4.30;98.40
16980;DHT22;42288;52.182;21.156;2022-12-10T15:16:43;4.40;98.60
16980;DHT22;42288;52.182;21.156;2022-12-10T15:21:59;4.30;98.10
16980;DHT22;42288;52.182;21.156;2022-12-10T15:24:32;4.50;98.40
16980;DHT22;42288;52.182;21.156;2022-12-10T15:27:00;4.50;98.40
16980;DHT22;42288;52.182;21.156;2022-12-10T15:32:00;4.70;98.00
16980;DHT22;42288;52.182;21.156;2022-12-10T15:34:28;4.30;97.30
16980;DHT22;42288;52.182;21.156;2022-12-10T15:36:56;4.20;98.00
16980;DHT22;42288;52.182;21.156;2022-12-10T15:39:28;4.20;97.90
16980;DHT22;42288;52.182;21.156;2022-12-10T15:42:00;4.10;97.90
16980;DHT22;42288;52.182;21.156;2022-12-10T15:44:40;4.20;98.50
16980;DHT22;42288;52.182;21.156;2022-12-10T15:47:23;3.90;97.70
16980;DHT22;42288;52.182;21.156;2022-12-10T15:49:51;4.20;98.00
16980;DHT22;42288;52.182;21.156;2022-12-10T15:52:30;4.50;97.90
16980;DHT22;42288;52.182;21.156;2022-12-10T15:54:57;4.40;97.50
16980;DHT22;42288;52.182;21.156;2022-12-10T15:57:25;4.50;97.50
16980;DHT22;42288;52.182;21.156;2022-12-10T15:59:54;4.50;97.50
16980;DHT22;42288;52.182;21.156;2022-12-10T16:02:37;4.50;97.20
16980;DHT22;42288;52.182;21.156;2022-12-10T16:07:35;4.40;97.80
16980;DHT22;42288;52.182;21.156;2022-12-10T16:10:01;4.20;97.30
16980;DHT22;42288;52.182;21.156;2022-12-10T16:12:26;4.40;97.80
16980;DHT22;42288;52.182;21.156;2022-12-10T16:14:55;4.40;97.40
16980;DHT22;42288;52.182;21.156;2022-12-10T16:17:25;4.30;97.50
16980;DHT22;42288;52.182;21.156;2022-12-10T16:19:52;4.40;97.30
16980;DHT22;42288;52.182;21.156;2022-12-10T16:22:18;4.60;97.20
16980;DHT22;42288;52.182;21.156;2022-12-10T16:24:44;4.50;97.00
16980;DHT22;42288;52.182;21.156;2022-12-10T16:27:13;4.30;97.00
16980;DHT22;42288;52.182;21.156;2022-12-10T16:29:40;4.30;97.30
16980;DHT22;42288;52.182;21.156;2022-12-10T16:32:09;4.20;97.20
16980;DHT22;42288;52.182;21.156;2022-12-10T16:34:35;4.10;97.50
16980;DHT22;42288;52.182;21.156;2022-12-10T16:37:00;4.20;97.70
16980;DHT22;42288;52.182;21.156;2022-12-10T16:39:26;4.10;97.80
16980;DHT22;42288;52.182;21.156;2022-12-10T16:41:52;4.20;97.80
16980;DHT22;42288;52.182;21.156;2022-12-10T16:44:18;4.20;97.50
16980;DHT22;42288;52.182;21.156;2022-12-10T16:46:44;4.10;97.50
16980;DHT22;42288;52.182;21.156;2022-12-10T16:49:09;4.10;97.40
16980;DHT22;42288;52.182;21.156;2022-12-10T16:51:36;4.30;97.50
16980;DHT22;42288;52.182;21.156;2022-12-10T16:54:02;4.30;97.60
16980;DHT22;42288;52.182;21.156;2022-12-10T16:56:28;4.40;97.60
16980;DHT22;42288;52.182;21.156;2022-12-10T16:58:54;4.30;97.50
16980;DHT22;42288;52.182;21.156;2022-12-10T17:01:25;4.40;97.30
16980;DHT22;42288;52.182;21.156;2022-12-10T17:03:53;4.40;97.30
16980;DHT22;42288;52.182;21.156;2022-12-10T17:06:20;4.60;96.80
16980;DHT22;42288;52.182;21.156;2022-12-10T17:08:46;4.50;96.40
16980;DHT22;42288;52.182;21.156;2022-12-10T17:11:17;4.60;96.60
16980;DHT22;42288;52.182;21.156;2022-12-10T17:14:03;4.50;96.90
16980;DHT22;42288;52.182;21.156;2022-12-10T17:16:30;4.50;96.90
16980;DHT22;42288;52.182;21.156;2022-12-10T17:18:56;4.60;96.90
16980;DHT22;42288;52.182;21.156;2022-12-10T17:21:21;4.40;96.80
16980;DHT22;42288;52.182;21.156;2022-12-10T17:23:47;4.50;97.20
16980;DHT22;42288;52.182;21.156;2022-12-10T17:26:26;4.70;97.00
16980;DHT22;42288;52.182;21.156;2022-12-10T17:28:52;4.40;96.30
16980;DHT22;42288;52.182;21.156;2022-12-10T17:31:19;4.10;97.20
16980;DHT22;42288;52.182;21.156;2022-12-10T17:33:45;4.30;97.30
16980;DHT22;42288;52.182;21.156;2022-12-10T17:36:10;4.20;97.20